Latest Weather Observations for Red Rocks Point

IDW60801

Issued at 7:32 pm WST Monday 27 April 2015 (issued every 30 minutes, with the page automatically refreshed every 10 minutes)

About weather observations | Map of weather stations | Latest weather observations for WA | Other Formats
Station Details ID: 011053 Name: RED ROCKS POINT Lat: -32.20 Lon: 127.53 Height: 3.1 m
Data from the previous 72 hours. | See also: Recent months for locations in Western Australia
Date/Time
WST
Temp
°C
App
Temp
°C
Dew
Point
Rel
Hum
%
Delta-T
°C
Wind Press
QNH
hPa
Press
MSL
hPa
Rain
since 9 am
mm
Dir
 
Spd
km/h
Gust
km/h
Spd
kts
Gust
kts
27/07:30pm 16.8 12.2 10.9 68 3.1 ESE 26 30 14 16 1030.7 - 0.0
27/07:00pm 16.8 12.3 11.3 70 2.9 ESE 26 32 14 17 1030.5 - 0.0
27/06:30pm 16.7 11.8 11.2 70 3.0 ESE 28 32 15 17 1030.4 - 0.0
27/06:00pm 16.7 11.8 11.4 71 2.8 ESE 28 33 15 18 1030.2 1030.2 0.0
27/05:30pm 16.9 11.8 11.8 72 2.8 ESE 30 35 16 19 1030.0 - 0.0
27/05:00pm 16.8 11.9 11.3 70 3.0 ESE 28 32 15 17 1029.9 - 0.0
27/04:30pm 17.0 12.2 11.7 71 2.9 ESE 28 33 15 18 1029.9 - 0.0
27/04:00pm 17.3 12.3 12.2 72 2.8 ESE 30 33 16 18 1029.9 - 0.0
27/03:30pm 17.7 13.1 12.4 71 2.9 ESE 28 39 15 21 1029.7 - 0.0
27/03:00pm 18.4 14.6 11.2 63 3.9 ESE 22 26 12 14 1029.7 1029.7 0.0
27/02:30pm 18.8 15.3 10.1 57 4.6 SE 19 22 10 12 1029.5 - 0.0
27/02:00pm 18.8 15.2 10.6 59 4.4 ESE 20 22 11 12 1029.4 - 0.0
27/01:30pm 18.8 15.1 10.1 57 4.6 SE 20 22 11 12 1029.4 - 0.0
27/01:00pm 18.0 14.4 10.6 62 4.0 SE 20 24 11 13 1029.5 - 0.0
27/12:30pm 18.9 15.4 11.0 60 4.3 SE 20 26 11 14 1029.7 - 0.0
27/12:00pm 18.4 14.8 10.7 61 4.1 SE 20 22 11 12 1029.9 1029.9 0.0
27/11:30am 19.4 16.0 11.2 59 4.5 ESE 20 26 11 14 1030.3 - 0.0
27/11:00am 19.0 16.8 12.0 64 3.9 ESE 15 20 8 11 1030.5 - 0.0
27/10:30am 18.5 17.2 12.5 68 3.3 ESE 11 17 6 9 1030.9 - 0.0
27/10:00am 18.5 17.5 13.4 72 2.9 ESE 11 13 6 7 1031.2 - 0.0
27/09:30am 17.2 18.0 12.7 75 2.5 CALM 0 0 0 0 1031.4 - 0.0
27/09:00am 16.3 16.9 13.2 82 1.7 NNE 2 7 1 4 1031.5 1031.5 2.2
27/08:30am 15.3 14.9 14.0 92 0.7 NNW 9 13 5 7 1031.3 - 2.2
27/08:00am 14.8 14.2 13.5 92 0.7 NNW 9 13 5 7 1031.1 - 2.2
27/07:30am 14.3 13.2 13.0 92 0.7 NNW 11 15 6 8 1030.8 - 2.2
27/07:00am 14.0 12.3 12.4 90 0.9 N 13 17 7 9 1030.5 - 2.0
27/06:30am 14.2 13.2 12.2 88 1.1 N 9 11 5 6 1030.1 - 1.8
27/06:00am 14.7 12.8 11.7 82 1.6 NE 13 32 7 17 1029.9 1029.9 1.6
27/05:30am 15.0 13.7 12.5 85 1.4 E 11 15 6 8 1029.6 - 1.6
27/05:00am 14.4 13.9 12.1 86 1.2 N 6 11 3 6 1029.5 - 1.0
27/04:30am 15.3 13.0 11.7 79 1.9 NE 15 20 8 11 1029.3 - 0.4
27/04:00am 15.7 11.9 12.5 81 1.8 S 24 30 13 16 1029.1 - 0.4
27/03:30am 15.2 12.4 12.7 85 1.4 SE 19 20 10 11 1029.0 - 0.4
27/03:00am 15.6 10.7 12.4 81 1.7 ESE 30 35 16 19 1029.0 1029.0 0.4
27/02:30am 15.5 10.7 12.8 84 1.5 ESE 30 35 16 19 1029.0 - 0.4
27/02:00am 13.8 13.2 12.4 91 0.8 N 7 19 4 10 1029.2 - 0.4
27/01:30am 13.9 13.4 12.1 89 1.0 NW 6 11 3 6 1029.2 - 0.2
27/01:00am 13.9 12.4 11.9 88 1.1 NW 11 13 6 7 1029.3 - 0.0
27/12:30am 14.0 12.4 11.7 86 1.2 NW 11 15 6 8 1029.3 - 0.0
27/12:00am 15.2 13.1 11.2 77 2.1 N 13 19 7 10 1029.2 1029.2 0.0
 
Date/Time
WST
Temp
°C
App
Temp
°C
Dew
Point
Rel
Hum
%
Delta-T
°C
Wind Press
QNH
hPa
Press
MSL
hPa
Rain
since 9 am
mm
Dir
 
Spd
km/h
Gust
km/h
Spd
kts
Gust
kts
26/11:30pm 17.2 13.7 12.3 73 2.7 SE 22 30 12 16 1029.2 - 0.0
26/11:00pm 17.3 13.5 11.1 67 3.3 ESE 22 26 12 14 1029.1 - 0.0
26/10:00pm 17.1 12.8 10.9 67 3.3 SE 24 28 13 15 1029.4 - 0.0
26/09:30pm 17.2 12.5 10.8 66 3.4 SE 26 30 14 16 1029.6 - 0.0
26/09:00pm 17.2 12.6 11.0 67 3.3 SE 26 33 14 18 1029.6 - 0.0
26/08:00pm 17.3 12.4 11.3 68 3.2 SE 28 33 15 18 1029.4 - 0.0
26/07:30pm 17.2 12.7 11.5 69 3.1 ESE 26 32 14 17 1029.3 - 0.0
26/07:00pm 17.1 12.7 11.6 70 3.0 ESE 26 32 14 17 1029.1 - 0.0
26/06:30pm 15.2 14.3 12.7 85 1.4 NNE 9 11 5 6 1029.1 - 0.0
26/06:00pm 16.0 13.2 13.1 83 1.6 ENE 20 24 11 13 1028.9 1028.9 0.0
26/05:30pm 16.5 12.6 13.4 82 1.7 E 26 32 14 17 1028.6 - 0.0
26/05:00pm 17.2 12.5 12.1 72 2.8 SE 28 32 15 17 1028.4 - 0.0
26/04:59pm 17.1 12.4 12.0 72 2.8 ESE 28 32 15 17 1028.4 - 0.0
26/04:30pm 15.6 15.4 12.9 84 1.5 E 6 11 3 6 1028.4 - 0.0
26/04:00pm 16.7 15.1 12.8 78 2.2 SSE 13 17 7 9 1028.3 - 0.0
26/03:30pm 16.8 16.3 12.5 76 2.4 S 7 9 4 5 1028.2 - 0.0
26/03:00pm 15.8 16.8 13.1 84 1.5 CALM 0 0 0 0 1028.0 1028.0 0.0
26/02:30pm 15.1 13.7 13.3 89 1.0 E 13 17 7 9 1028.2 - 0.0
26/02:00pm 16.1 11.8 13.2 83 1.6 ESE 28 32 15 17 1028.2 - 0.0
26/01:30pm 16.8 12.8 12.9 78 2.2 SE 26 32 14 17 1028.0 - 0.0
26/01:00pm 17.9 15.2 13.0 73 2.7 SE 19 22 10 12 1027.9 - 0.0
26/12:30pm 16.8 13.8 12.7 77 2.3 ENE 20 26 11 14 1028.0 - 0.0
26/12:00pm 17.3 14.4 12.2 72 2.8 ESE 19 22 10 12 1028.3 1028.3 0.0
26/11:30am 16.7 14.2 11.2 70 3.0 E 15 24 8 13 1028.7 - 0.0
26/11:00am 16.7 11.8 12.7 77 2.2 ESE 30 35 16 19 1029.0 - 0.0
26/10:52am 17.4 11.9 12.5 73 2.7 ESE 33 35 18 19 1029.0 - 0.0
26/10:30am 18.7 16.8 11.8 64 3.8 E 13 15 7 8 1029.1 - 0.0
26/10:00am 17.0 14.3 11.7 71 2.9 E 17 28 9 15 1029.2 - 0.0
26/09:00am 15.9 11.7 12.5 80 1.9 ESE 26 32 14 17 1029.3 1029.3 0.4
26/08:30am 17.2 13.8 11.2 68 3.2 SE 20 24 11 13 1029.2 - 0.4
26/08:00am 16.9 13.3 10.7 67 3.3 SE 20 26 11 14 1029.1 - 0.4
26/07:30am 17.1 13.8 11.6 70 3.0 SE 20 24 11 13 1028.8 - 0.4
26/07:00am 16.8 13.7 11.5 71 2.9 SE 19 26 10 14 1028.4 - 0.4
26/06:30am 16.5 12.9 10.6 68 3.1 SE 20 24 11 13 1028.1 - 0.4
26/06:00am 16.3 12.7 10.6 69 3.0 SE 20 26 11 14 1027.9 1027.9 0.4
26/05:30am 16.2 12.0 11.2 72 2.7 SSE 24 30 13 16 1027.5 - 0.4
26/05:00am 16.1 12.9 9.8 66 3.3 SE 17 22 9 12 1027.1 - 0.4
26/04:30am 16.1 12.3 9.1 63 3.6 SSE 19 24 10 13 1027.2 - 0.4
26/04:00am 16.4 12.7 10.0 66 3.4 SSE 20 26 11 14 1027.1 - 0.4
26/03:30am 16.3 11.4 8.3 59 4.1 SSE 24 30 13 16 1026.8 - 0.4
26/03:00am 16.2 12.6 8.2 59 4.0 SSE 17 22 9 12 1026.8 1026.8 0.4
26/02:30am 16.2 12.4 8.9 62 3.7 SSE 19 24 10 13 1026.8 - 0.4
26/02:00am 16.1 12.4 9.5 65 3.4 SSE 19 22 10 12 1026.9 - 0.4
26/01:30am 16.1 11.8 9.5 65 3.4 SE 22 26 12 14 1026.9 - 0.4
26/01:00am 16.2 11.9 9.4 64 3.5 SSE 22 28 12 15 1026.9 - 0.4
26/12:30am 16.4 12.5 9.6 64 3.5 SE 20 24 11 13 1026.9 - 0.4
26/12:00am 16.2 12.4 9.8 66 3.3 SE 20 26 11 14 1026.8 1026.8 0.4
 
Date/Time
WST
Temp
°C
App
Temp
°C
Dew
Point
Rel
Hum
%
Delta-T
°C
Wind Press
QNH
hPa
Press
MSL
hPa
Rain
since 9 am
mm
Dir
 
Spd
km/h
Gust
km/h
Spd
kts
Gust
kts
25/11:30pm 15.0 13.3 10.0 72 2.6 WSW 9 13 5 7 1026.8 - 0.4
25/11:00pm 15.7 11.9 9.8 68 3.1 S 20 28 11 15 1027.1 - 0.4
25/10:30pm 16.5 12.9 10.4 67 3.2 S 20 26 11 14 1027.2 - 0.4
25/10:00pm 16.6 12.9 9.5 63 3.7 SSE 19 24 10 13 1027.4 - 0.4
25/09:30pm 16.7 12.3 10.5 67 3.3 SSE 24 30 13 16 1027.2 - 0.4
25/09:00pm 16.7 12.6 8.7 59 4.1 SSE 20 24 11 13 1027.4 1027.4 0.4
25/08:30pm 16.6 12.2 8.8 60 4.0 SE 22 28 12 15 1027.3 - 0.4
25/08:00pm 16.4 12.2 9.8 65 3.5 SSE 22 28 12 15 1027.1 - 0.4
25/07:30pm 16.4 12.0 10.5 68 3.1 SE 24 28 13 15 1026.9 - 0.4
25/07:00pm 16.2 12.2 10.5 69 3.0 SE 22 26 12 14 1026.8 - 0.4
25/06:30pm 14.0 14.2 11.7 86 1.2 WSW 2 9 1 5 1026.7 - 0.4
25/06:00pm 14.0 12.3 11.3 84 1.4 WSW 11 13 6 7 1026.7 1026.7 0.4
25/05:30pm 14.5 13.2 11.1 80 1.8 SSW 9 15 5 8 1026.4 - 0.4
25/05:00pm 14.6 15.1 11.7 83 1.6 CALM 0 0 0 0 1026.2 - 0.4
25/04:30pm 14.6 12.7 11.7 83 1.6 SW 13 19 7 10 1026.0 - 0.4
25/04:00pm 16.1 12.3 11.1 72 2.7 SSE 22 37 12 20 1025.9 - 0.2
25/03:30pm 17.4 12.9 10.1 62 3.9 S 24 30 13 16 1025.6 - 0.0
25/03:00pm 18.0 15.5 12.2 69 3.2 SSE 17 20 9 11 1025.5 1025.5 0.0
25/02:30pm 16.9 13.0 12.0 73 2.7 S 24 28 13 15 1025.2 - 0.0
25/02:00pm 17.8 14.2 11.8 68 3.3 S 22 32 12 17 1025.2 - 0.0
25/01:30pm 17.4 13.6 11.2 67 3.4 S 22 28 12 15 1025.1 - 0.0
25/01:00pm 16.9 13.3 11.8 72 2.8 S 22 30 12 16 1025.1 - 0.0
25/12:30pm 17.7 14.1 11.7 68 3.3 SSW 22 30 12 16 1025.2 - 0.0
25/12:00pm 18.3 13.4 11.4 64 3.7 S 28 39 15 21 1025.3 1025.3 0.0
25/11:30am 18.6 14.5 11.4 63 3.9 S 24 32 13 17 1025.6 - 0.0
25/11:00am 18.2 13.3 11.3 64 3.8 S 28 33 15 18 1026.1 - 0.0
25/10:30am 18.7 14.0 10.5 59 4.4 S 26 32 14 17 1026.2 - 0.0
25/10:00am 17.0 11.6 10.8 67 3.3 S 30 37 16 20 1026.3 - 0.0
25/09:30am 18.6 14.4 11.2 62 4.0 S 24 32 13 17 1026.4 - 0.0
25/09:00am 17.5 12.7 11.5 68 3.2 S 28 35 15 19 1026.3 1026.3 2.0
25/08:30am 16.6 11.8 10.2 66 3.4 SSE 26 35 14 19 1026.3 - 2.0
25/08:00am 16.9 11.3 11.6 71 2.9 S 32 37 17 20 1026.1 - 2.0
25/07:30am 16.3 12.3 10.6 69 3.0 S 22 33 12 18 1025.7 - 2.0
25/07:00am 15.4 10.5 10.0 70 2.8 SSE 26 37 14 20 1025.3 - 2.0
25/06:30am 15.4 8.6 10.8 74 2.4 S 37 43 20 23 1025.1 - 2.0
25/06:28am 15.4 8.8 11.2 76 2.2 S 37 43 20 23 1025.1 - 2.0
25/06:00am 14.5 11.7 11.3 81 1.7 SW 17 28 9 15 1024.8 1024.8 2.0
25/05:30am 14.4 12.8 10.2 76 2.2 SW 9 15 5 8 1024.8 - 2.0
25/05:00am 14.9 8.8 10.5 75 2.3 SSW 33 46 18 25 1024.9 - 2.0
25/04:43am 15.6 9.9 11.0 74 2.5 S 32 50 17 27 1024.5 - 2.0
25/04:30am 15.7 10.4 8.4 62 3.7 S 26 33 14 18 1024.3 - 2.0
25/04:00am 15.8 9.6 9.5 66 3.3 S 32 39 17 21 1024.2 - 2.0
25/03:30am 16.1 10.3 9.3 64 3.5 S 30 35 16 19 1024.1 - 2.0
25/03:00am 16.1 10.3 8.1 59 4.0 S 28 35 15 19 1023.8 1023.8 2.0
25/02:30am 16.2 9.9 9.6 65 3.4 S 33 41 18 22 1023.8 - 2.0
25/02:00am 16.0 9.9 10.3 69 3.0 S 33 43 18 23 1023.7 - 2.0
25/01:30am 15.8 8.8 11.2 74 2.5 S 39 46 21 25 1023.9 - 1.8
25/01:00am 15.9 10.1 10.9 72 2.7 S 32 37 17 20 1023.8 - 1.8
25/12:30am 15.0 10.9 10.2 73 2.5 S 22 35 12 19 1023.9 - 1.8
25/12:00am 15.3 8.5 10.7 74 2.4 S 37 46 20 25 1024.0 - 1.8
 
Date/Time
WST
Temp
°C
App
Temp
°C
Dew
Point
Rel
Hum
%
Delta-T
°C
Wind Press
QNH
hPa
Press
MSL
hPa
Rain
since 9 am
mm
Dir
 
Spd
km/h
Gust
km/h
Spd
kts
Gust
kts
24/11:30pm 15.0 10.4 11.0 77 2.1 S 26 39 14 21 1023.9 - 1.8
24/11:13pm 15.6 9.9 11.2 75 2.4 S 32 54 17 29 1024.0 - 1.8
24/11:00pm 15.4 9.8 10.2 71 2.7 S 30 35 16 19 1023.9 - 1.8
24/10:47pm 15.1 8.4 9.5 69 2.9 S 35 54 19 29 1024.1 - 1.8
24/10:30pm 14.9 7.9 11.1 78 2.0 SSW 39 54 21 29 1024.1 - 1.8
24/10:00pm 14.7 10.2 11.5 81 1.7 SSW 26 43 14 23 1024.2 - 1.8
24/09:30pm 13.8 6.7 11.0 83 1.5 SSW 39 57 21 31 1024.4 - 1.8
24/09:23pm 15.1 9.2 11.3 78 2.0 SSW 33 57 18 31 1024.3 - 1.8
24/09:00pm 14.3 10.2 11.3 82 1.6 SSW 24 39 13 21 1024.4 1024.4 1.8
24/08:30pm 15.1 10.0 10.5 74 2.4 SSW 28 41 15 22 1024.5 - 1.6
24/08:00pm 14.5 8.6 10.3 76 2.2 S 32 41 17 22 1024.4 - 1.6
24/07:39pm 14.2 8.6 11.5 84 1.4 SSW 32 54 17 29 1024.4 - 1.6

Other Formats:

Comma delimited format used in spreadsheet applications
http://www.bom.gov.au/fwo/IDW60801/IDW60801.94644.axf

JavaScript Object Notation format (JSON) in row-major order
http://www.bom.gov.au/fwo/IDW60801/IDW60801.94644.json